Time;durP1;ratioP1;P1;durP2;ratioP2;P2;SDS_P1;SDS_P2;PMS_P1;PMS_P2;Temp;Humidity;BMP_temperature;BMP_pressure;BME280_temperature;BME280_humidity;BME280_pressure;Samples;Min_cycle;Max_cycle;Signal;HPM_P1;HPM_P2
2024/01/28 00:03:58;;;;;;;31.80;11.38;;;;;;;2.78;100.00;102332.56;8288830;28;20196;-55
2024/01/28 00:07:58;;;;;;;21.75;9.05;;;;;;;2.77;100.00;102330.78;8289181;28;20330;-54
2024/01/28 00:11:59;;;;;;;27.58;9.90;;;;;;;2.78;100.00;102329.00;8293496;28;20104;-55
2024/01/28 00:15:59;;;;;;;29.23;10.65;;;;;;;2.70;100.00;102326.56;8293010;28;20066;-55
2024/01/28 00:20:00;;;;;;;29.80;9.82;;;;;;;2.53;100.00;102315.50;8288283;28;20046;-55
2024/01/28 00:24:04;;;;;;;29.17;11.15;;;;;;;2.54;100.00;102303.03;8287482;28;20038;-60
2024/01/28 00:28:05;;;;;;;24.60;11.38;;;;;;;2.55;100.00;102311.00;8290103;28;20092;-57
2024/01/28 00:32:06;;;;;;;25.80;9.68;;;;;;;2.56;100.00;102309.22;8293855;28;20038;-55
2024/01/28 00:36:06;;;;;;;22.88;10.82;;;;;;;2.50;100.00;102299.56;8286368;28;20424;-59
2024/01/28 00:40:08;;;;;;;29.85;12.15;;;;;;;2.57;100.00;102292.28;8290652;28;20042;-55
2024/01/28 00:44:09;;;;;;;31.05;9.77;;;;;;;2.55;100.00;102286.97;8292228;28;20145;-55
2024/01/28 00:48:09;;;;;;;25.27;10.40;;;;;;;2.60;100.00;102285.06;8293805;28;20038;-57
2024/01/28 00:52:10;;;;;;;22.90;9.50;;;;;;;2.60;100.00;102290.41;8291370;28;20133;-55
2024/01/28 00:56:10;;;;;;;22.77;9.95;;;;;;;2.57;100.00;102289.59;8289883;28;20382;-56
2024/01/28 01:00:11;;;;;;;25.73;9.48;;;;;;;2.46;100.00;102276.56;8293323;28;20062;-56
2024/01/28 01:04:12;;;;;;;37.33;9.80;;;;;;;2.48;100.00;102266.75;8292231;28;20353;-55
2024/01/28 01:08:12;;;;;;;24.42;9.35;;;;;;;2.37;100.00;102252.84;8294032;28;20447;-56
2024/01/28 01:12:13;;;;;;;33.33;10.57;;;;;;;2.47;100.00;102256.97;8294285;28;20046;-56
2024/01/28 01:16:13;;;;;;;34.50;10.88;;;;;;;2.48;100.00;102256.06;8294144;28;20087;-56
2024/01/28 01:20:14;;;;;;;25.02;9.90;;;;;;;2.44;100.00;102243.72;8293605;28;20057;-54
2024/01/28 01:24:14;;;;;;;25.60;9.15;;;;;;;2.43;100.00;102233.09;8293138;28;20057;-55
2024/01/28 01:28:15;;;;;;;23.05;8.68;;;;;;;2.44;100.00;102249.06;8291931;28;20060;-56
2024/01/28 01:32:16;;;;;;;26.67;10.25;;;;;;;2.41;100.00;102243.81;8289052;28;20057;-55
2024/01/28 01:36:16;;;;;;;23.75;8.80;;;;;;;2.42;100.00;102242.91;8293073;28;20030;-55
2024/01/28 01:40:16;;;;;;;25.17;10.45;;;;;;;2.27;100.00;102234.47;8293034;28;20045;-56
2024/01/28 01:44:17;;;;;;;30.60;11.30;;;;;;;2.24;100.00;102238.13;8292171;28;20512;-55
2024/01/28 01:48:20;;;;;;;22.33;10.13;;;;;;;2.26;100.00;102246.97;8292611;28;20045;-54
2024/01/28 01:52:21;;;;;;;28.20;10.88;;;;;;;2.24;100.00;102238.13;8291121;28;20037;-54
2024/01/28 01:56:22;;;;;;;30.50;9.90;;;;;;;2.35;100.00;102236.00;8292393;28;20555;-56
2024/01/28 02:00:23;;;;;;;19.65;8.10;;;;;;;2.32;100.00;102229.88;8293140;28;20431;-55
2024/01/28 02:04:24;;;;;;;23.10;8.32;;;;;;;2.38;100.00;102235.03;8292564;28;20439;-56
2024/01/28 02:08:26;;;;;;;26.42;9.15;;;;;;;2.38;100.00;102230.56;8289709;28;20038;-54
2024/01/28 02:12:26;;;;;;;27.27;8.63;;;;;;;2.44;100.00;102224.19;8292271;28;20034;-53
2024/01/28 02:16:27;;;;;;;19.98;8.30;;;;;;;2.44;100.00;102234.84;8291269;28;20034;-53
2024/01/28 02:20:27;;;;;;;26.20;8.57;;;;;;;2.41;100.00;102227.78;8291393;28;20041;-53
2024/01/28 02:24:28;;;;;;;17.52;7.82;;;;;;;2.51;100.00;102226.59;8291664;28;20101;-56
2024/01/28 02:28:28;;;;;;;20.92;6.95;;;;;;;2.45;100.00;102210.78;8291024;28;20034;-55
2024/01/28 02:32:28;;;;;;;16.27;7.63;;;;;;;2.55;100.00;102212.22;8288024;28;20412;-55
2024/01/28 02:36:29;;;;;;;19.17;6.90;;;;;;;2.56;100.00;102197.09;8291775;28;20810;-54
2024/01/28 02:40:31;;;;;;;27.92;8.38;;;;;;;2.65;100.00;102202.16;8291542;28;20553;-55
2024/01/28 02:44:34;;;;;;;21.05;7.45;;;;;;;2.65;100.00;102186.97;8291709;28;20046;-55
2024/01/28 02:48:34;;;;;;;19.30;6.63;;;;;;;2.59;100.00;102184.50;8291371;28;20060;-56
2024/01/28 02:52:35;;;;;;;30.20;7.53;;;;;;;2.55;100.00;102180.19;8290539;28;20034;-56
2024/01/28 02:56:35;;;;;;;20.17;7.28;;;;;;;2.64;100.00;102169.22;8289657;28;20041;-55
2024/01/28 03:00:36;;;;;;;16.60;6.22;;;;;;;2.65;100.00;102157.63;8291217;28;20038;-56
2024/01/28 03:04:37;;;;;;;23.48;7.40;;;;;;;2.60;100.00;102158.69;8290814;28;20037;-60
2024/01/28 03:08:41;;;;;;;19.50;6.70;;;;;;;2.55;100.00;102156.19;8290656;28;20493;-55
2024/01/28 03:12:41;;;;;;;15.52;6.65;;;;;;;2.60;100.00;102140.91;8291011;28;20042;-55
2024/01/28 03:16:42;;;;;;;20.52;6.32;;;;;;;2.63;100.00;102124.78;8290723;28;20168;-55
2024/01/28 03:20:42;;;;;;;23.52;6.68;;;;;;;2.74;100.00;102138.63;8291483;28;20048;-55
2024/01/28 03:24:42;;;;;;;18.80;6.90;;;;;;;2.74;100.00;102138.63;8291107;28;20104;-55
2024/01/28 03:28:43;;;;;;;29.77;6.60;;;;;;;2.73;100.00;102142.22;8289499;28;20065;-55
2024/01/28 03:32:43;;;;;;;20.73;7.07;;;;;;;2.76;100.00;102142.13;8285992;28;20045;-55
2024/01/28 03:36:44;;;;;;;18.77;6.22;;;;;;;2.69;100.00;102124.56;8290092;28;20073;-55
2024/01/28 03:40:44;;;;;;;15.73;6.18;;;;;;;2.74;100.00;102127.09;8278291;28;20089;-55
2024/01/28 03:44:45;;;;;;;15.32;5.93;;;;;;;2.85;99.95;102125.78;8289952;28;20408;-55
2024/01/28 03:48:45;;;;;;;20.45;6.53;;;;;;;2.82;99.79;102125.00;8285617;28;20058;-55
2024/01/28 03:52:46;;;;;;;16.15;6.20;;;;;;;2.83;99.62;102114.28;8288645;28;20116;-55
2024/01/28 03:56:46;;;;;;;21.02;5.65;;;;;;;2.80;99.57;102117.03;8290163;28;20176;-56
2024/01/28 04:00:47;;;;;;;18.73;7.07;;;;;;;2.72;99.59;102113.78;8286309;28;20050;-54
2024/01/28 04:04:47;;;;;;;21.60;6.10;;;;;;;2.73;99.59;102112.84;8289511;28;20527;-54
2024/01/28 04:08:49;;;;;;;17.02;6.70;;;;;;;2.76;99.29;102117.19;8294429;28;20046;-60
2024/01/28 04:12:49;;;;;;;18.95;6.38;;;;;;;2.79;99.40;102120.66;8295156;28;20042;-55
2024/01/28 04:16:50;;;;;;;16.67;6.78;;;;;;;2.75;99.21;102108.34;8295719;28;20041;-54
2024/01/28 04:20:51;;;;;;;19.35;5.80;;;;;;;2.60;99.25;102110.66;8295328;28;20049;-53
2024/01/28 04:24:52;;;;;;;18.50;5.78;;;;;;;2.71;99.27;102112.03;8294299;28;20485;-54
2024/01/28 04:28:52;;;;;;;17.48;5.50;;;;;;;2.79;98.76;102104.63;8294878;28;20239;-54
2024/01/28 04:32:53;;;;;;;15.18;5.00;;;;;;;2.79;98.46;102098.41;8295431;28;20258;-54
2024/01/28 04:36:53;;;;;;;18.52;5.53;;;;;;;2.70;98.30;102099.59;8290791;28;20479;-54
2024/01/28 04:40:53;;;;;;;17.10;5.57;;;;;;;2.67;98.27;102098.81;8293502;28;20081;-55
2024/01/28 04:44:54;;;;;;;15.95;5.72;;;;;;;2.64;98.53;102099.81;8293870;28;20424;-54
2024/01/28 04:48:54;;;;;;;11.90;5.80;;;;;;;2.55;99.07;102094.78;8294814;28;20064;-52
2024/01/28 04:52:55;;;;;;;21.52;6.20;;;;;;;2.55;99.02;102086.78;8293482;28;20038;-53
2024/01/28 04:56:55;;;;;;;19.17;5.53;;;;;;;2.58;98.74;102089.34;8293802;28;20056;-55
2024/01/28 05:00:55;;;;;;;17.42;6.22;;;;;;;2.51;99.13;102082.47;8285440;28;20038;-54
2024/01/28 05:04:56;;;;;;;23.42;6.00;;;;;;;2.44;99.61;102096.91;8294758;28;20132;-54
2024/01/28 05:08:56;;;;;;;17.20;5.57;;;;;;;2.48;99.73;102087.03;8295878;28;20057;-54
2024/01/28 05:12:56;;;;;;;13.13;5.55;;;;;;;2.45;99.54;102090.69;8293998;28;20050;-56
2024/01/28 05:16:58;;;;;;;21.15;6.15;;;;;;;2.39;99.60;102098.91;8297252;28;20468;-54
2024/01/28 05:21:01;;;;;;;16.17;5.72;;;;;;;2.30;100.00;102091.19;8292995;28;20037;-54
2024/01/28 05:25:02;;;;;;;19.23;6.65;;;;;;;2.28;100.00;102093.03;8296163;28;20073;-55
2024/01/28 05:29:05;;;;;;;21.40;6.85;;;;;;;2.29;100.00;102086.78;8292392;28;20050;-54
2024/01/28 05:33:05;;;;;;;13.40;6.13;;;;;;;2.18;100.00;102083.56;8289300;28;20042;-54
2024/01/28 05:37:06;;;;;;;21.02;6.38;;;;;;;2.16;100.00;102087.22;8290390;28;20076;-54
2024/01/28 05:41:07;;;;;;;20.08;6.82;;;;;;;2.13;100.00;102079.31;8292984;28;20042;-54
2024/01/28 05:45:09;;;;;;;24.33;6.97;;;;;;;2.20;100.00;102071.06;8294258;28;20057;-54
2024/01/28 05:49:11;;;;;;;21.52;6.15;;;;;;;2.23;100.00;102065.63;8292575;28;20038;-54
2024/01/28 05:53:11;;;;;;;22.05;7.03;;;;;;;2.20;100.00;102064.84;8293686;28;20038;-54
2024/01/28 05:57:12;;;;;;;15.38;6.35;;;;;;;2.23;100.00;102062.97;8292300;28;20041;-54
2024/01/28 06:01:14;;;;;;;18.23;6.63;;;;;;;2.38;100.00;102046.41;8293925;28;20037;-54
2024/01/28 06:05:14;;;;;;;18.23;6.65;;;;;;;2.47;99.11;102053.28;8289484;28;20042;-55
2024/01/28 06:09:15;;;;;;;18.65;6.30;;;;;;;2.45;98.78;102047.97;8287697;28;20034;-56
2024/01/28 06:13:16;;;;;;;19.90;7.13;;;;;;;2.42;99.20;102042.75;8289985;28;20045;-54
2024/01/28 06:17:16;;;;;;;14.77;6.18;;;;;;;2.46;99.21;102048.84;8292354;28;20054;-54
2024/01/28 06:21:18;;;;;;;18.77;6.32;;;;;;;2.46;98.98;102046.16;8292788;28;20041;-54
2024/01/28 06:25:18;;;;;;;24.50;5.85;;;;;;;2.43;99.25;102041.81;8298929;28;20077;-53
2024/01/28 06:29:19;;;;;;;20.85;5.30;;;;;;;2.47;98.64;102038.09;8297955;28;20113;-56
2024/01/28 06:33:19;;;;;;;13.82;5.80;;;;;;;2.61;97.74;102046.53;8282282;28;20050;-55
2024/01/28 06:37:19;;;;;;;16.92;5.93;;;;;;;2.62;97.18;102050.06;8272021;28;20107;-55
2024/01/28 06:41:20;;;;;;;16.88;5.82;;;;;;;2.48;97.26;102045.22;8284910;28;20034;-54
2024/01/28 06:45:20;;;;;;;17.60;5.22;;;;;;;2.58;97.41;102049.28;8277168;28;20045;-55
2024/01/28 06:49:21;;;;;;;17.80;5.13;;;;;;;2.53;97.62;102053.06;8282047;28;20053;-54
2024/01/28 06:53:21;;;;;;;16.70;4.90;;;;;;;2.60;97.14;102039.44;8273250;28;20344;-54
2024/01/28 06:57:22;;;;;;;16.52;5.35;;;;;;;2.63;96.09;102039.34;8275481;28;20393;-58
2024/01/28 07:01:22;;;;;;;21.30;5.30;;;;;;;2.70;95.79;102046.22;8284441;28;20531;-54
2024/01/28 07:05:23;;;;;;;10.85;4.55;;;;;;;2.86;94.90;102044.72;8294114;28;20038;-54
2024/01/28 07:09:23;;;;;;;12.50;4.72;;;;;;;2.87;94.50;102033.09;8292200;28;20049;-54
2024/01/28 07:13:24;;;;;;;14.00;5.63;;;;;;;2.83;94.18;102042.16;8299231;28;20038;-55
2024/01/28 07:17:25;;;;;;;12.10;5.20;;;;;;;2.82;94.28;102024.41;8289114;28;20034;-54
2024/01/28 07:21:26;;;;;;;17.60;5.00;;;;;;;2.81;94.23;102033.31;8294749;28;20049;-54
2024/01/28 07:25:26;;;;;;;17.77;5.68;;;;;;;2.90;93.96;102026.81;8283566;28;20038;-55
2024/01/28 07:29:27;;;;;;;13.98;4.25;;;;;;;2.89;93.77;102017.91;8285533;28;20035;-54
2024/01/28 07:33:27;;;;;;;14.65;6.03;;;;;;;2.77;94.07;102021.03;8282936;28;20038;-60
2024/01/28 07:37:27;;;;;;;17.38;5.57;;;;;;;2.83;94.23;102015.47;8285131;28;20035;-62
2024/01/28 07:41:28;;;;;;;10.48;4.57;;;;;;;2.87;93.95;102006.41;8283962;28;20064;-55
2024/01/28 07:45:36;;;;;;;15.02;4.70;;;;;;;2.92;93.56;102020.47;8287993;28;20065;-55
2024/01/28 07:49:36;;;;;;;12.93;5.07;;;;;;;3.01;93.64;102004.09;8288241;28;20042;-56
2024/01/28 07:53:36;;;;;;;12.63;4.43;;;;;;;3.08;92.77;102008.28;8289634;28;20179;-57
2024/01/28 07:57:37;;;;;;;10.98;4.85;;;;;;;3.12;92.80;102007.28;8281944;28;20041;-57
2024/01/28 08:01:37;;;;;;;19.98;5.07;;;;;;;3.13;92.54;101995.63;8288464;28;20456;-54
2024/01/28 08:05:38;;;;;;;11.13;4.57;;;;;;;3.31;92.03;102000.28;8287904;28;20097;-55
2024/01/28 08:09:38;;;;;;;34.50;10.45;;;;;;;3.38;91.62;101993.78;8286128;28;20101;-54
2024/01/28 08:13:38;;;;;;;21.33;8.73;;;;;;;3.56;90.86;101997.53;8290645;28;20413;-54
2024/01/28 08:17:39;;;;;;;18.17;6.22;;;;;;;3.69;90.20;101994.31;8294263;28;20045;-57
2024/01/28 08:21:39;;;;;;;19.65;5.20;;;;;;;3.65;90.55;101987.34;8294985;28;20037;-59
2024/01/28 08:25:40;;;;;;;11.43;5.07;;;;;;;3.70;90.34;101990.72;8289437;28;20045;-54
2024/01/28 08:29:40;;;;;;;14.05;4.40;;;;;;;3.92;89.24;101996.06;8287454;28;20070;-55
2024/01/28 08:33:42;;;;;;;21.60;5.88;;;;;;;4.06;88.51;101988.34;8282420;28;20356;-56
2024/01/28 08:37:43;;;;;;;12.18;4.85;;;;;;;4.15;87.94;101981.75;8289561;28;20038;-57
2024/01/28 08:41:43;;;;;;;19.77;5.25;;;;;;;4.19;87.88;101972.63;8283989;28;20581;-53
2024/01/28 08:45:44;;;;;;;14.23;5.00;;;;;;;4.29;87.69;101969.50;8286771;28;20057;-54
2024/01/28 08:49:44;;;;;;;12.70;4.38;;;;;;;4.46;86.91;101966.97;8277009;28;20041;-55
2024/01/28 08:53:45;;;;;;;11.40;4.32;;;;;;;4.51;86.44;101973.00;8280198;28;20096;-56
2024/01/28 08:57:45;;;;;;;15.38;5.65;;;;;;;4.60;86.28;101977.94;8288598;28;20540;-56
2024/01/28 09:01:47;;;;;;;11.88;4.35;;;;;;;4.68;85.39;101972.25;8271797;28;20134;-57
2024/01/28 09:05:48;;;;;;;12.63;4.35;;;;;;;5.28;84.00;101966.78;8259326;28;20509;-55
2024/01/28 09:09:48;;;;;;;14.07;4.53;;;;;;;6.07;79.90;101967.38;8255678;28;20455;-54
2024/01/28 09:13:48;;;;;;;12.13;3.85;;;;;;;6.77;76.86;101965.47;8273311;28;20045;-56
2024/01/28 09:17:49;;;;;;;8.50;3.60;;;;;;;7.27;74.68;101966.31;8305153;28;20046;-54
2024/01/28 09:21:49;;;;;;;9.80;4.15;;;;;;;7.23;73.79;101959.34;8287289;28;20065;-56
2024/01/28 09:25:50;;;;;;;11.05;4.10;;;;;;;7.40;72.97;101967.38;8279468;28;20042;-57
2024/01/28 09:29:53;;;;;;;17.83;8.23;;;;;;;7.66;72.55;101964.06;8284243;28;20521;-54
2024/01/28 09:33:53;;;;;;;11.15;4.78;;;;;;;7.96;71.17;101962.31;8283389;28;20068;-57
2024/01/28 09:37:54;;;;;;;14.45;3.67;;;;;;;8.01;70.84;101971.03;8282082;28;20049;-56
2024/01/28 09:42:20;;;;;;;14.50;6.55;;;;;;;8.22;70.77;101958.16;8282474;28;20038;-57
2024/01/28 09:46:21;;;;;;;15.45;6.18;;;;;;;8.45;69.04;101940.63;8280409;28;20053;-58
2024/01/28 09:50:22;;;;;;;14.55;6.55;;;;;;;8.43;69.17;101958.69;8280634;28;20176;-57
2024/01/28 09:54:22;;;;;;;9.88;4.55;;;;;;;8.44;69.30;101957.72;8284999;28;20100;-57
2024/01/28 09:58:23;;;;;;;11.23;4.25;;;;;;;8.66;68.36;101956.34;8282847;28;20436;-55
2024/01/28 10:02:24;;;;;;;12.07;4.15;;;;;;;8.76;67.03;101951.28;8280795;28;20045;-58
2024/01/28 10:06:24;;;;;;;11.77;5.03;;;;;;;9.28;67.29;101947.94;8286763;28;20050;-56
2024/01/28 10:10:25;;;;;;;13.20;5.10;;;;;;;9.20;66.93;101943.97;8281114;28;20076;-57
2024/01/28 10:14:26;;;;;;;12.85;4.30;;;;;;;9.71;65.91;101940.63;8287127;28;20038;-57
2024/01/28 10:18:26;;;;;;;7.38;3.55;;;;;;;9.64;65.04;101933.88;8282253;28;20034;-56
2024/01/28 10:22:27;;;;;;;17.88;4.85;;;;;;;10.48;63.52;101938.09;8305823;28;20037;-57
2024/01/28 10:26:28;;;;;;;11.55;5.13;;;;;;;10.25;63.35;101930.69;8278139;28;20041;-58
2024/01/28 10:30:28;;;;;;;8.50;4.18;;;;;;;10.22;63.62;101937.19;8280639;28;20033;-57
2024/01/28 10:34:29;;;;;;;12.30;5.68;;;;;;;10.86;62.65;101929.03;8280851;28;20034;-57
2024/01/28 10:38:32;;;;;;;9.98;3.97;;;;;;;11.07;62.05;101932.94;8279532;28;20041;-56
2024/01/28 10:42:41;;;;;;;9.60;3.95;;;;;;;10.52;62.16;101924.25;8278278;28;20519;-57
2024/01/28 10:46:44;;;;;;;11.82;4.22;;;;;;;11.50;62.28;101920.72;8280581;28;20125;-57
2024/01/28 10:50:47;;;;;;;8.90;3.42;;;;;;;12.95;57.64;101906.81;8280224;28;20085;-64
2024/01/28 10:54:49;;;;;;;9.85;3.03;;;;;;;12.50;56.99;101907.75;8279624;28;20062;-57
2024/01/28 10:58:50;;;;;;;8.15;3.28;;;;;;;11.10;60.98;101911.06;8278604;28;20423;-57
2024/01/28 11:02:54;;;;;;;10.77;4.10;;;;;;;11.19;61.58;101899.56;8284861;28;20049;-55
2024/01/28 11:06:55;;;;;;;12.13;4.55;;;;;;;11.40;60.36;101897.16;8281193;28;20081;-56
2024/01/28 11:10:56;;;;;;;16.30;6.85;;;;;;;11.88;60.64;101896.25;8282897;28;20038;-57
2024/01/28 11:14:58;;;;;;;4.68;2.97;;;;;;;12.24;58.19;101879.03;8282352;28;20129;-58
2024/01/28 11:19:08;;;;;;;10.23;3.65;;;;;;;12.26;59.04;101885.22;8289856;28;20046;-58
2024/01/28 11:23:16;;;;;;;9.00;4.03;;;;;;;12.56;58.11;101861.97;8288937;28;20046;-58
2024/01/28 11:27:16;;;;;;;11.55;3.15;;;;;;;12.88;56.92;101844.03;8293189;28;20120;-58
2024/01/28 11:31:41;;;;;;;8.57;3.17;;;;;;;12.30;57.64;101857.75;8288344;28;20392;-58
2024/01/28 11:35:44;;;;;;;7.55;3.70;;;;;;;12.61;57.42;101856.19;8287625;28;20046;-56
2024/01/28 11:39:47;;;;;;;9.27;2.72;;;;;;;13.29;57.23;101841.56;8292608;28;20046;-57
2024/01/28 11:43:47;;;;;;;9.77;3.25;;;;;;;12.93;56.44;101840.94;8284219;28;20057;-57
2024/01/28 11:47:48;;;;;;;6.78;3.03;;;;;;;12.95;57.23;101844.38;8286564;28;20124;-58
2024/01/28 11:51:48;;;;;;;7.88;2.70;;;;;;;13.27;56.52;101834.53;8292444;28;20046;-57
2024/01/28 11:55:48;;;;;;;6.82;2.42;;;;;;;12.97;56.65;101823.41;8291304;28;20602;-58
2024/01/28 11:59:49;;;;;;;7.95;2.65;;;;;;;13.50;56.61;101819.91;8287702;28;20050;-60
2024/01/28 12:03:54;;;;;;;5.78;2.45;;;;;;;13.36;55.26;101817.47;8290260;28;20508;-56
2024/01/28 12:07:57;;;;;;;9.68;2.58;;;;;;;13.35;55.43;101804.88;8280265;28;20042;-57
2024/01/28 12:11:58;;;;;;;5.70;2.60;;;;;;;13.46;56.11;101813.00;8284071;28;20096;-55
2024/01/28 12:16:00;;;;;;;7.18;2.47;;;;;;;13.57;56.08;101804.81;8284709;28;20037;-54
2024/01/28 12:20:00;;;;;;;6.55;2.20;;;;;;;13.63;55.58;101809.72;8283049;28;20402;-55
2024/01/28 12:24:03;;;;;;;7.05;2.53;;;;;;;12.97;57.26;101801.69;8284677;28;20050;-55
2024/01/28 12:28:04;;;;;;;7.28;2.90;;;;;;;13.50;57.48;101795.44;8284838;28;20041;-56
2024/01/28 12:32:06;;;;;;;7.18;2.53;;;;;;;14.44;54.31;101797.25;8289518;28;20088;-56
2024/01/28 12:36:06;;;;;;;7.15;2.22;;;;;;;14.27;54.11;101789.66;8282260;28;20512;-54
2024/01/28 12:40:08;;;;;;;8.23;2.58;;;;;;;14.18;55.49;101785.00;8285415;28;20049;-56
2024/01/28 12:44:08;;;;;;;5.63;2.25;;;;;;;14.61;53.41;101776.72;8308586;28;20046;-56
2024/01/28 12:48:09;;;;;;;5.25;2.33;;;;;;;14.66;53.84;101771.69;8287235;28;20056;-55
2024/01/28 12:52:09;;;;;;;5.13;2.20;;;;;;;14.40;54.20;101773.16;8280171;28;20408;-56
2024/01/28 12:56:10;;;;;;;7.50;2.00;;;;;;;14.33;53.85;101759.22;8278612;28;20404;-56
2024/01/28 13:00:11;;;;;;;7.93;2.72;;;;;;;13.76;55.58;101753.34;8295248;28;20531;-57
2024/01/28 13:04:13;;;;;;;8.13;2.58;;;;;;;13.25;57.28;101738.72;8281090;28;20042;-56
2024/01/28 13:08:13;;;;;;;8.73;2.67;;;;;;;12.93;58.70;101737.78;8285145;28;20044;-57
2024/01/28 13:12:15;;;;;;;7.93;2.83;;;;;;;12.82;59.02;101740.50;8284335;28;20037;-55
2024/01/28 13:16:15;;;;;;;6.88;2.85;;;;;;;12.65;59.21;101727.44;8285645;28;20466;-55
2024/01/28 13:20:16;;;;;;;11.35;3.00;;;;;;;12.50;59.37;101729.53;8286971;28;20092;-54
2024/01/28 13:24:16;;;;;;;5.70;2.80;;;;;;;12.48;60.19;101731.53;8285602;28;20125;-54
2024/01/28 13:28:17;;;;;;;4.85;2.30;;;;;;;12.52;59.60;101722.16;8286433;28;20077;-56
2024/01/28 13:32:18;;;;;;;10.52;2.78;;;;;;;12.41;59.54;101718.59;8280127;28;20061;-57
2024/01/28 13:36:19;;;;;;;6.57;2.60;;;;;;;12.31;59.36;101712.16;8286285;28;20037;-57
2024/01/28 13:40:20;;;;;;;7.75;2.45;;;;;;;12.44;59.97;101718.34;8285794;28;20428;-56
2024/01/28 13:44:20;;;;;;;4.65;2.35;;;;;;;12.36;59.60;101705.41;8284980;28;20068;-58
2024/01/28 13:48:21;;;;;;;4.15;2.03;;;;;;;12.40;59.28;101700.56;8288200;28;20040;-56
2024/01/28 13:52:21;;;;;;;4.78;2.38;;;;;;;12.39;59.41;101704.28;8286672;28;20117;-57
2024/01/28 13:56:22;;;;;;;7.00;2.45;;;;;;;12.56;59.54;101687.50;8288797;28;20053;-57
2024/01/28 14:00:22;;;;;;;4.85;1.90;;;;;;;12.54;59.39;101675.91;8290828;28;20060;-56
2024/01/28 14:04:22;;;;;;;4.55;2.15;;;;;;;12.54;59.32;101673.19;8288190;28;20042;-57
2024/01/28 14:08:23;;;;;;;6.80;2.25;;;;;;;12.61;60.18;101671.69;8276056;28;20034;-56
2024/01/28 14:12:24;;;;;;;4.55;2.65;;;;;;;12.58;59.49;101669.25;8289259;28;20030;-55
2024/01/28 14:16:25;;;;;;;7.85;2.50;;;;;;;12.53;59.33;101657.91;8285603;28;20096;-57
2024/01/28 14:20:25;;;;;;;5.13;2.30;;;;;;;12.53;60.25;101661.47;8286822;28;20053;-57
2024/01/28 14:24:25;;;;;;;3.50;2.22;;;;;;;12.53;59.73;101653.34;8286348;28;20116;-56
2024/01/28 14:28:26;;;;;;;7.57;2.38;;;;;;;12.52;60.26;101661.59;8284393;28;20185;-56
2024/01/28 14:32:26;;;;;;;5.65;2.08;;;;;;;12.43;59.82;101646.06;8275919;28;20077;-57
2024/01/28 14:36:27;;;;;;;4.25;2.33;;;;;;;12.43;59.87;101646.06;8287693;28;20052;-57
2024/01/28 14:40:27;;;;;;;9.65;3.00;;;;;;;12.38;60.46;101649.16;8278417;28;20550;-56
2024/01/28 14:44:27;;;;;;;4.93;2.28;;;;;;;12.30;60.75;101645.34;8280194;28;20038;-57
2024/01/28 14:48:29;;;;;;;7.35;3.13;;;;;;;12.18;60.77;101641.78;8272202;28;20038;-56
2024/01/28 14:52:30;;;;;;;7.97;2.85;;;;;;;12.22;60.54;101647.81;8285226;28;20030;-62
2024/01/28 14:56:31;;;;;;;5.85;2.30;;;;;;;12.17;60.87;101650.03;8281684;28;20341;-56
2024/01/28 15:00:31;;;;;;;7.68;2.45;;;;;;;12.10;60.87;101640.69;8284051;28;20042;-59
2024/01/28 15:04:31;;;;;;;6.18;2.50;;;;;;;12.00;60.89;101643.25;8284944;28;20057;-58
2024/01/28 15:08:32;;;;;;;7.45;3.30;;;;;;;11.88;61.32;101634.28;8283433;28;20053;-57
2024/01/28 15:12:33;;;;;;;4.38;2.30;;;;;;;11.87;61.47;101637.94;8278295;28;20528;-57
2024/01/28 15:16:38;;;;;;;5.93;2.63;;;;;;;11.79;61.39;101639.53;8278584;28;20291;-57
2024/01/28 15:20:38;;;;;;;7.20;2.83;;;;;;;11.79;61.06;101639.53;8272122;28;20122;-58
2024/01/28 15:24:39;;;;;;;5.68;2.22;;;;;;;11.70;61.27;101637.56;8276680;28;20366;-57
2024/01/28 15:28:39;;;;;;;5.63;2.17;;;;;;;11.52;61.86;101636.25;8283959;28;20042;-57
2024/01/28 15:32:41;;;;;;;6.40;2.50;;;;;;;11.44;61.84;101634.13;8283360;28;20046;-57
2024/01/28 15:36:41;;;;;;;7.00;2.30;;;;;;;11.38;62.33;101633.75;8283189;28;20054;-57
2024/01/28 15:40:42;;;;;;;6.57;2.40;;;;;;;11.26;62.42;101635.53;8283552;28;20110;-57
2024/01/28 15:44:43;;;;;;;7.72;2.33;;;;;;;11.10;63.11;101629.59;8281447;28;20374;-57
2024/01/28 15:48:43;;;;;;;5.45;2.38;;;;;;;11.05;63.53;101631.78;8274074;28;20100;-58
2024/01/28 15:52:44;;;;;;;3.80;2.22;;;;;;;10.96;63.56;101626.19;8279118;28;20049;-59
2024/01/28 15:56:45;;;;;;;4.53;2.45;;;;;;;10.79;64.01;101630.19;8283639;28;20049;-56
2024/01/28 16:00:45;;;;;;;3.92;2.30;;;;;;;10.71;63.88;101627.19;8282877;28;20100;-56
2024/01/28 16:04:45;;;;;;;6.20;2.60;;;;;;;10.62;64.57;101638.69;8286926;28;20054;-56
2024/01/28 16:08:46;;;;;;;4.95;2.30;;;;;;;10.63;64.43;101629.59;8282104;28;20661;-55
2024/01/28 16:12:46;;;;;;;4.53;2.55;;;;;;;10.53;64.48;101633.97;8284398;28;20050;-55
2024/01/28 16:16:47;;;;;;;6.60;2.65;;;;;;;10.34;65.21;101633.56;8287850;28;20543;-56
2024/01/28 16:20:47;;;;;;;9.57;2.90;;;;;;;10.25;65.35;101630.69;8283612;28;20353;-55
2024/01/28 16:24:48;;;;;;;5.35;2.67;;;;;;;10.25;65.18;101639.66;8286346;28;20078;-56
2024/01/28 16:28:48;;;;;;;5.18;2.70;;;;;;;10.25;65.05;101638.81;8285153;28;20060;-56
2024/01/28 16:32:49;;;;;;;8.88;3.03;;;;;;;10.03;65.75;101634.03;8288064;28;20129;-56
2024/01/28 16:36:50;;;;;;;4.03;3.17;;;;;;;9.87;66.63;101633.41;8283004;28;20042;-58
2024/01/28 16:40:50;;;;;;;10.25;3.83;;;;;;;9.78;67.26;101634.06;8280321;28;20042;-56
2024/01/28 16:44:51;;;;;;;7.78;3.72;;;;;;;9.66;67.37;101625.00;8284123;28;20050;-57
2024/01/28 16:48:51;;;;;;;10.73;4.05;;;;;;;9.53;67.97;101628.66;8288280;28;20544;-56
2024/01/28 16:52:52;;;;;;;9.60;4.32;;;;;;;9.53;67.37;101632.22;8287586;28;20404;-55
2024/01/28 16:56:52;;;;;;;11.35;5.47;;;;;;;9.39;68.04;101628.72;8286932;28;20072;-55
2024/01/28 17:00:53;;;;;;;10.32;4.28;;;;;;;9.42;67.85;101637.50;8286717;28;20347;-57
2024/01/28 17:04:53;;;;;;;11.35;5.35;;;;;;;9.23;68.60;101637.03;8285950;28;20504;-58
2024/01/28 17:08:54;;;;;;;9.10;4.78;;;;;;;9.31;68.28;101633.81;8288798;28;20037;-56
2024/01/28 17:12:55;;;;;;;13.60;5.13;;;;;;;9.24;68.54;101625.25;8272975;28;20065;-57
2024/01/28 17:16:55;;;;;;;8.15;4.88;;;;;;;9.23;68.17;101625.38;8282688;28;20042;-56
2024/01/28 17:20:56;;;;;;;7.35;4.03;;;;;;;9.23;68.39;101619.97;8283428;28;20042;-56
2024/01/28 17:24:56;;;;;;;8.98;4.28;;;;;;;9.29;67.45;101619.53;8281393;28;20140;-58
2024/01/28 17:28:57;;;;;;;12.30;4.32;;;;;;;9.23;68.00;101622.66;8287425;28;20099;-56
2024/01/28 17:32:57;;;;;;;8.40;4.07;;;;;;;9.20;67.94;101625.56;8287127;28;20200;-55
2024/01/28 17:36:58;;;;;;;9.65;3.83;;;;;;;9.16;68.02;101621.38;8284268;28;20782;-57
2024/01/28 17:40:59;;;;;;;8.65;4.40;;;;;;;9.02;68.63;101624.13;8270746;28;20228;-58
2024/01/28 17:44:59;;;;;;;7.97;3.65;;;;;;;9.08;68.34;101621.00;8279221;28;20155;-57
2024/01/28 17:49:03;;;;;;;7.70;3.83;;;;;;;9.19;67.81;101615.75;8277121;28;20057;-58
2024/01/28 17:53:04;;;;;;;8.40;3.38;;;;;;;9.03;68.15;101617.78;8279016;28;20052;-57
2024/01/28 17:57:04;;;;;;;6.72;3.33;;;;;;;8.97;68.11;101610.09;8278309;28;20124;-56
2024/01/28 18:01:07;;;;;;;6.88;3.92;;;;;;;8.94;68.61;101616.53;8283754;28;20251;-59
2024/01/28 18:05:08;;;;;;;6.53;4.03;;;;;;;8.94;68.27;101613.00;8284274;28;20129;-57
2024/01/28 18:09:08;;;;;;;7.78;3.55;;;;;;;8.79;68.64;101608.63;8284650;28;21450;-59
2024/01/28 18:13:09;;;;;;;7.93;3.55;;;;;;;8.85;68.84;101603.72;8281697;28;20081;-58
2024/01/28 18:17:10;;;;;;;7.68;3.88;;;;;;;8.73;68.94;101609.03;8281149;28;20048;-59
2024/01/28 18:21:11;;;;;;;7.43;3.35;;;;;;;8.74;69.07;101605.38;8286968;28;20557;-59
2024/01/28 18:25:12;;;;;;;7.18;3.92;;;;;;;8.68;68.92;101595.88;8283184;28;20060;-56
2024/01/28 18:29:13;;;;;;;11.13;4.38;;;;;;;8.78;68.76;101590.75;8277482;28;20069;-57
2024/01/28 18:33:14;;;;;;;14.10;6.18;;;;;;;8.73;68.77;101592.88;8273810;28;20038;-56
2024/01/28 18:37:15;;;;;;;10.38;4.43;;;;;;;8.74;68.33;101594.59;8277546;28;20041;-58
2024/01/28 18:41:17;;;;;;;8.80;4.55;;;;;;;8.74;68.05;101595.47;8279211;28;20568;-56